Time;durP1;ratioP1;P1;durP2;ratioP2;P2;SDS_P1;SDS_P2;PMS_P1;PMS_P2;Temp;Humidity;BMP_temperature;BMP_pressure;BME280_temperature;BME280_humidity;BME280_pressure;Samples;Min_cycle;Max_cycle;Signal;HPM_P1;HPM_P2
2022/05/09 00:01:29;;;;;;;7.57;3.33;;;;;;;;;;4403342;32;20293;-55
2022/05/09 00:03:56;;;;;;;8.38;3.15;;;;;;;;;;4403470;32;20233;-54
2022/05/09 00:06:22;;;;;;;6.47;3.62;;;;;;;;;;4395031;32;20631;-54
2022/05/09 00:08:47;;;;;;;6.03;3.50;;;;;;;;;;4388479;32;20252;-54
2022/05/09 00:11:13;;;;;;;10.88;3.62;;;;;;;;;;4375287;32;20320;-54
2022/05/09 00:13:39;;;;;;;8.30;3.60;;;;;;;;;;4389286;32;20248;-54
2022/05/09 00:16:06;;;;;;;15.55;3.95;;;;;;;;;;4388542;32;20292;-56
2022/05/09 00:18:31;;;;;;;10.90;3.33;;;;;;;;;;4388055;32;20551;-55
2022/05/09 00:20:57;;;;;;;15.38;3.92;;;;;;;;;;4391330;32;20272;-56
2022/05/09 00:23:22;;;;;;;4.50;2.75;;;;;;;;;;4401727;32;20260;-54
2022/05/09 00:25:48;;;;;;;5.57;3.37;;;;;;;;;;4401546;32;20281;-55
2022/05/09 00:28:14;;;;;;;7.90;2.85;;;;;;;;;;4401764;32;20229;-55
2022/05/09 00:30:40;;;;;;;9.52;5.18;;;;;;;;;;4401117;32;20288;-55
2022/05/09 00:33:05;;;;;;;12.47;6.27;;;;;;;;;;4401031;32;20306;-55
2022/05/09 00:35:31;;;;;;;11.23;6.12;;;;;;;;;;4400360;32;20345;-55
2022/05/09 00:37:56;;;;;;;16.10;5.93;;;;;;;;;;4399464;32;20315;-54
2022/05/09 00:40:22;;;;;;;11.63;5.72;;;;;;;;;;4392593;32;20309;-55
2022/05/09 00:42:52;;;;;;;9.25;5.37;;;;;;;;;;4375450;32;20245;-55
2022/05/09 00:45:21;;;;;;;7.47;5.20;;;;;;;;;;4379572;32;20229;-54
2022/05/09 00:47:47;;;;;;;10.80;4.82;;;;;;;;;;4391349;32;20535;-54
2022/05/09 00:50:17;;;;;;;5.73;3.83;;;;;;;;;;4393368;32;20264;-54
2022/05/09 00:52:55;;;;;;;5.50;2.85;;;;;;;;;;4405453;32;20673;-54
2022/05/09 00:55:36;;;;;;;9.15;3.17;;;;;;;;;;4406520;32;20327;-54
2022/05/09 00:58:27;;;;;;;4.63;3.07;;;;;;;;;;4405712;32;20480;-55
2022/05/09 01:00:55;;;;;;;6.43;2.97;;;;;;;;;;4401918;32;20677;-55
2022/05/09 01:03:32;;;;;;;7.53;3.08;;;;;;;;;;4402542;32;20314;-54
2022/05/09 01:05:58;;;;;;;6.43;3.03;;;;;;;;;;4405994;32;20225;-55
2022/05/09 01:08:24;;;;;;;8.27;3.37;;;;;;;;;;4407834;32;20260;-55
2022/05/09 01:10:52;;;;;;;7.97;4.20;;;;;;;;;;4407934;32;20298;-54
2022/05/09 01:13:21;;;;;;;9.60;3.45;;;;;;;;;;4407960;32;20290;-54
2022/05/09 01:15:51;;;;;;;5.25;3.72;;;;;;;;;;4407679;32;20205;-54
2022/05/09 01:18:16;;;;;;;3.87;2.50;;;;;;;;;;4408203;32;20268;-55
2022/05/09 01:20:42;;;;;;;7.62;3.30;;;;;;;;;;4409075;32;20623;-55
2022/05/09 01:23:10;;;;;;;5.85;3.45;;;;;;;;;;4419545;32;20233;-54
2022/05/09 01:25:37;;;;;;;9.35;2.78;;;;;;;;;;4417228;27;20246;-84
2022/05/09 01:28:03;;;;;;;4.78;2.80;;;;;;;;;;4366605;32;20587;-83
2022/05/09 01:30:48;;;;;;;10.47;3.93;;;;;;;;;;4366660;32;20608;-83
2022/05/09 01:33:39;;;;;;;6.40;3.67;;;;;;;;;;4380457;32;20534;-83
2022/05/09 01:36:15;;;;;;;12.07;4.10;;;;;;;;;;4371939;32;20218;-83
2022/05/09 01:38:56;;;;;;;7.03;3.90;;;;;;;;;;4380326;32;20664;-84
2022/05/09 01:41:25;;;;;;;6.97;3.50;;;;;;;;;;4379979;32;20260;-83
2022/05/09 01:43:55;;;;;;;4.37;2.87;;;;;;;;;;4379840;32;20718;-84
2022/05/09 01:46:29;;;;;;;10.87;3.90;;;;;;;;;;4379741;32;20573;-83
2022/05/09 01:51:42;;;;;;;8.63;4.37;;;;;;;;;;4380063;32;20245;-82
2022/05/09 01:54:09;;;;;;;12.53;4.57;;;;;;;;;;4364596;32;20648;-82
2022/05/09 01:56:36;;;;;;;8.37;3.97;;;;;;;;;;4377516;32;20537;-83
2022/05/09 01:59:03;;;;;;;5.72;4.00;;;;;;;;;;4377194;32;20520;-83
2022/05/09 02:01:35;;;;;;;6.93;4.33;;;;;;;;;;4377349;32;20678;-85
2022/05/09 02:04:01;;;;;;;13.07;4.53;;;;;;;;;;4377698;32;20693;-82
2022/05/09 02:06:27;;;;;;;6.90;3.77;;;;;;;;;;4377257;32;20277;-84
2022/05/09 02:08:52;;;;;;;8.43;3.30;;;;;;;;;;4377346;32;20190;-84
2022/05/09 02:11:18;;;;;;;7.30;3.60;;;;;;;;;;4377235;32;20214;-83
2022/05/09 02:13:44;;;;;;;8.27;3.50;;;;;;;;;;4377642;32;20195;-83
2022/05/09 02:16:11;;;;;;;5.70;2.83;;;;;;;;;;4363473;32;20651;-83
2022/05/09 02:18:38;;;;;;;18.37;6.23;;;;;;;;;;4377463;32;20596;-83
2022/05/09 02:21:04;;;;;;;14.73;5.13;;;;;;;;;;4363923;32;20610;-83
2022/05/09 02:23:31;;;;;;;7.57;4.33;;;;;;;;;;4377794;32;20528;-83
2022/05/09 02:25:57;;;;;;;11.87;5.20;;;;;;;;;;4377095;32;20609;-83
2022/05/09 02:28:22;;;;;;;15.43;4.10;;;;;;;;;;4377675;32;20186;-83
2022/05/09 02:30:49;;;;;;;11.07;5.17;;;;;;;;;;4377478;32;20285;-83
2022/05/09 02:33:15;;;;;;;14.20;4.77;;;;;;;;;;4377207;32;20600;-83
2022/05/09 02:35:42;;;;;;;12.40;4.80;;;;;;;;;;4363533;32;20701;-84
2022/05/09 02:38:08;;;;;;;15.23;4.80;;;;;;;;;;4376818;32;20583;-84
2022/05/09 02:40:34;;;;;;;9.10;4.77;;;;;;;;;;4377093;32;20240;-83
2022/05/09 02:43:01;;;;;;;6.33;4.10;;;;;;;;;;4376967;32;20572;-84
2022/05/09 02:45:27;;;;;;;6.70;3.83;;;;;;;;;;4376775;32;20624;-83
2022/05/09 02:47:54;;;;;;;19.13;4.20;;;;;;;;;;4376870;32;20560;-83
2022/05/09 02:50:23;;;;;;;16.02;5.62;;;;;;;;;;4376797;32;20639;-83
2022/05/09 02:52:50;;;;;;;8.50;4.07;;;;;;;;;;4377255;32;20577;-83
2022/05/09 02:55:16;;;;;;;8.47;4.30;;;;;;;;;;4376438;32;20619;-83
2022/05/09 02:57:42;;;;;;;11.10;4.13;;;;;;;;;;4376310;32;20630;-83
2022/05/09 03:00:21;;;;;;;6.70;3.87;;;;;;;;;;4376302;32;20186;-83
2022/05/09 03:05:34;;;;;;;7.90;4.00;;;;;;;;;;4376481;32;20237;-84
2022/05/09 03:08:00;;;;;;;7.73;4.00;;;;;;;;;;4376680;32;20488;-83
2022/05/09 03:10:28;;;;;;;7.50;3.40;;;;;;;;;;4350464;32;20316;-83
2022/05/09 03:12:59;;;;;;;6.60;3.87;;;;;;;;;;4376134;32;20596;-83
2022/05/09 03:15:25;;;;;;;13.27;4.03;;;;;;;;;;4376105;32;20639;-83
2022/05/09 03:17:51;;;;;;;9.50;4.83;;;;;;;;;;4376329;32;20733;-83
2022/05/09 03:20:17;;;;;;;12.17;3.90;;;;;;;;;;4376441;32;20215;-83
2022/05/09 03:22:43;;;;;;;9.10;4.57;;;;;;;;;;4362664;32;20218;-83
2022/05/09 03:25:08;;;;;;;5.83;4.27;;;;;;;;;;4376022;32;20190;-83
2022/05/09 03:27:34;;;;;;;7.43;3.63;;;;;;;;;;4376322;32;20189;-83
2022/05/09 03:30:00;;;;;;;6.70;3.33;;;;;;;;;;4376108;32;20214;-84
2022/05/09 03:32:26;;;;;;;6.53;3.27;;;;;;;;;;4376200;32;20190;-84
2022/05/09 03:34:51;;;;;;;9.67;3.50;;;;;;;;;;4362737;32;20233;-83
2022/05/09 03:37:17;;;;;;;7.87;3.57;;;;;;;;;;4376367;32;20216;-82
2022/05/09 03:39:43;;;;;;;8.83;4.27;;;;;;;;;;4376122;32;20217;-83
2022/05/09 03:42:09;;;;;;;22.13;9.77;;;;;;;;;;4375966;32;20240;-84
2022/05/09 03:44:34;;;;;;;61.10;47.10;;;;;;;;;;4375887;32;20360;-85
2022/05/09 03:47:00;;;;;;;50.10;42.37;;;;;;;;;;4375862;32;20283;-83
2022/05/09 03:49:27;;;;;;;39.17;24.27;;;;;;;;;;4362689;32;20237;-82
2022/05/09 03:51:52;;;;;;;36.10;20.60;;;;;;;;;;4375923;32;20628;-82
2022/05/09 03:54:18;;;;;;;17.17;12.17;;;;;;;;;;4362613;32;20245;-82
2022/05/09 03:56:45;;;;;;;18.60;8.50;;;;;;;;;;4350358;32;20272;-81
2022/05/09 03:59:11;;;;;;;18.97;7.30;;;;;;;;;;4375921;32;20540;-82
2022/05/09 04:01:37;;;;;;;14.67;7.00;;;;;;;;;;4375891;32;20635;-82
2022/05/09 04:04:04;;;;;;;12.43;6.93;;;;;;;;;;4376240;32;20677;-82
2022/05/09 04:06:30;;;;;;;15.53;5.70;;;;;;;;;;4361723;32;20563;-82
2022/05/09 04:08:56;;;;;;;10.00;5.10;;;;;;;;;;4375358;32;20588;-81
2022/05/09 04:11:21;;;;;;;20.63;6.20;;;;;;;;;;4361784;32;20319;-82
2022/05/09 04:13:47;;;;;;;10.80;5.27;;;;;;;;;;4375604;32;20190;-82
2022/05/09 04:18:59;;;;;;;17.77;6.07;;;;;;;;;;4375674;32;20205;-82
2022/05/09 04:21:26;;;;;;;8.93;5.17;;;;;;;;;;4361816;32;20568;-82
2022/05/09 04:23:58;;;;;;;16.73;5.83;;;;;;;;;;4374978;32;20611;-82
2022/05/09 04:26:25;;;;;;;14.57;5.40;;;;;;;;;;4375673;32;20663;-82
2022/05/09 04:28:51;;;;;;;9.30;4.50;;;;;;;;;;4375326;32;20744;-82
2022/05/09 04:31:18;;;;;;;18.10;5.27;;;;;;;;;;4375181;32;20226;-82
2022/05/09 04:33:44;;;;;;;7.60;4.03;;;;;;;;;;4375403;32;20596;-82
2022/05/09 04:36:09;;;;;;;18.53;5.17;;;;;;;;;;4375268;32;20206;-82
2022/05/09 04:38:38;;;;;;;8.03;3.53;;;;;;;;;;4375027;32;20229;-83
2022/05/09 04:41:04;;;;;;;5.23;3.37;;;;;;;;;;4375191;32;20670;-83
2022/05/09 04:43:31;;;;;;;6.23;3.53;;;;;;;;;;4375196;32;20573;-82
2022/05/09 04:46:01;;;;;;;11.33;4.20;;;;;;;;;;4361375;32;20575;-83
2022/05/09 04:48:28;;;;;;;9.83;3.13;;;;;;;;;;4375427;32;20528;-84
2022/05/09 04:50:54;;;;;;;12.83;4.63;;;;;;;;;;4375191;32;20712;-84
2022/05/09 04:53:20;;;;;;;12.10;4.70;;;;;;;;;;4374771;32;20540;-84
2022/05/09 04:55:46;;;;;;;11.97;4.93;;;;;;;;;;4374686;32;20305;-84
2022/05/09 04:58:14;;;;;;;16.17;5.60;;;;;;;;;;4374279;32;20555;-84
2022/05/09 05:00:47;;;;;;;7.67;5.03;;;;;;;;;;4374834;32;20536;-87
2022/05/09 05:03:13;;;;;;;14.70;6.20;;;;;;;;;;4359808;32;20549;-84
2022/05/09 05:05:40;;;;;;;11.73;6.10;;;;;;;;;;4374721;32;20569;-84
2022/05/09 05:08:06;;;;;;;11.57;5.67;;;;;;;;;;4374675;32;20672;-81
2022/05/09 05:10:32;;;;;;;21.57;7.20;;;;;;;;;;4374484;32;20560;-84
2022/05/09 05:12:59;;;;;;;27.93;7.23;;;;;;;;;;4374529;32;20210;-85
2022/05/09 05:15:28;;;;;;;16.63;6.77;;;;;;;;;;4361077;32;20608;-87
2022/05/09 05:17:55;;;;;;;16.13;6.30;;;;;;;;;;4374625;32;20627;-91
2022/05/09 05:20:20;;;;;;;12.40;6.67;;;;;;;;;;4375191;32;20520;-89
2022/05/09 05:22:47;;;;;;;18.70;6.03;;;;;;;;;;4374313;32;20210;-82
2022/05/09 05:25:19;;;;;;;11.23;6.03;;;;;;;;;;4374491;32;20509;-83
2022/05/09 05:27:47;;;;;;;10.43;5.90;;;;;;;;;;4360999;32;20575;-83
2022/05/09 05:30:13;;;;;;;15.47;5.70;;;;;;;;;;4376321;32;20599;-82
2022/05/09 05:32:41;;;;;;;14.63;5.43;;;;;;;;;;4377632;32;20632;-83
2022/05/09 05:35:14;;;;;;;15.20;6.03;;;;;;;;;;4377443;32;20232;-82
2022/05/09 05:37:40;;;;;;;13.13;5.17;;;;;;;;;;4377443;32;20716;-83
2022/05/09 05:40:07;;;;;;;8.73;5.30;;;;;;;;;;4377264;32;20509;-84
2022/05/09 05:42:34;;;;;;;15.93;4.93;;;;;;;;;;4377085;32;20640;-83
2022/05/09 05:44:59;;;;;;;7.67;3.83;;;;;;;;;;4377446;32;20531;-83
2022/05/09 05:47:25;;;;;;;9.07;5.27;;;;;;;;;;4377677;32;20241;-83
2022/05/09 05:49:51;;;;;;;15.70;4.97;;;;;;;;;;4377480;32;20277;-85
2022/05/09 05:52:17;;;;;;;8.57;4.43;;;;;;;;;;4378099;32;20643;-85
2022/05/09 05:54:45;;;;;;;18.87;4.77;;;;;;;;;;4363789;32;20325;-85
2022/05/09 05:57:28;;;;;;;10.60;4.40;;;;;;;;;;4364228;32;20661;-84
2022/05/09 06:00:01;;;;;;;10.30;5.20;;;;;;;;;;4366561;32;20784;-84
2022/05/09 06:02:27;;;;;;;15.13;6.70;;;;;;;;;;4368793;32;20237;-82
2022/05/09 06:04:53;;;;;;;7.47;4.90;;;;;;;;;;4377123;32;20308;-81
2022/05/09 06:07:22;;;;;;;19.70;6.17;;;;;;;;;;4377113;32;20494;-81
2022/05/09 06:09:49;;;;;;;15.40;6.80;;;;;;;;;;4377090;32;20679;-81
2022/05/09 06:12:17;;;;;;;17.00;6.67;;;;;;;;;;4376639;32;20666;-82
2022/05/09 06:14:43;;;;;;;7.77;5.43;;;;;;;;;;4376921;32;20583;-82
2022/05/09 06:17:10;;;;;;;13.37;5.73;;;;;;;;;;4362809;32;20595;-82
2022/05/09 06:19:37;;;;;;;10.57;5.60;;;;;;;;;;4376657;32;20579;-82
2022/05/09 06:22:03;;;;;;;16.97;6.77;;;;;;;;;;4376675;32;20587;-83
2022/05/09 06:24:29;;;;;;;13.57;5.30;;;;;;;;;;4376849;32;20608;-82
2022/05/09 06:26:55;;;;;;;11.70;5.23;;;;;;;;;;4376246;32;20229;-83
2022/05/09 06:29:21;;;;;;;13.23;4.33;;;;;;;;;;4376764;32;20284;-82
2022/05/09 06:31:47;;;;;;;12.47;4.20;;;;;;;;;;4362964;32;20575;-82
2022/05/09 06:34:13;;;;;;;14.20;5.60;;;;;;;;;;4376685;32;20387;-82
2022/05/09 06:36:44;;;;;;;16.27;6.40;;;;;;;;;;4376610;32;20563;-82
2022/05/09 06:39:10;;;;;;;12.40;5.77;;;;;;;;;;4376191;32;20712;-82
2022/05/09 06:41:38;;;;;;;12.57;4.27;;;;;;;;;;4376645;32;20600;-82
2022/05/09 06:44:04;;;;;;;10.80;4.67;;;;;;;;;;4362948;32;20599;-82
2022/05/09 06:46:30;;;;;;;12.33;4.70;;;;;;;;;;4376259;32;20532;-82
2022/05/09 06:48:55;;;;;;;13.10;4.77;;;;;;;;;;4376190;32;20210;-81
2022/05/09 06:51:22;;;;;;;10.53;4.90;;;;;;;;;;4376091;32;20265;-82
2022/05/09 06:53:50;;;;;;;6.80;4.53;;;;;;;;;;4362860;32;20629;-85
2022/05/09 06:56:16;;;;;;;17.37;4.07;;;;;;;;;;4377564;32;20663;-85
2022/05/09 06:58:42;;;;;;;15.43;3.90;;;;;;;;;;4378987;32;20707;-85
2022/05/09 07:01:16;;;;;;;5.68;3.12;;;;;;;;;;4378572;32;20568;-85
2022/05/09 07:03:43;;;;;;;20.60;4.47;;;;;;;;;;4377916;32;20209;-84
2022/05/09 07:06:09;;;;;;;14.87;3.60;;;;;;;;;;4378551;32;20670;-84
2022/05/09 07:08:35;;;;;;;9.30;4.23;;;;;;;;;;4377632;32;20486;-85
2022/05/09 07:11:02;;;;;;;12.00;4.20;;;;;;;;;;4378547;32;20713;-86
2022/05/09 07:13:28;;;;;;;12.30;4.10;;;;;;;;;;4378043;32;20630;-86
2022/05/09 07:15:57;;;;;;;7.23;3.67;;;;;;;;;;4365331;32;20210;-85
2022/05/09 07:18:28;;;;;;;11.97;4.00;;;;;;;;;;4378150;32;20552;-86
2022/05/09 07:20:55;;;;;;;8.60;3.33;;;;;;;;;;4377841;32;20662;-85
2022/05/09 07:23:20;;;;;;;5.63;2.80;;;;;;;;;;4375682;32;20558;-85
2022/05/09 07:25:47;;;;;;;9.07;3.73;;;;;;;;;;4376748;32;20305;-85
2022/05/09 07:28:16;;;;;;;13.30;3.23;;;;;;;;;;4363852;32;20629;-85
2022/05/09 07:30:42;;;;;;;3.97;2.70;;;;;;;;;;4376837;32;20754;-85
2022/05/09 07:33:10;;;;;;;8.23;3.50;;;;;;;;;;4377923;32;20598;-85
2022/05/09 07:35:36;;;;;;;5.62;3.10;;;;;;;;;;4378058;32;20226;-85
2022/05/09 07:38:02;;;;;;;7.82;2.97;;;;;;;;;;4376802;32;20242;-86
2022/05/09 07:40:28;;;;;;;8.15;2.62;;;;;;;;;;4363931;32;20516;-86
2022/05/09 07:42:54;;;;;;;9.32;2.85;;;;;;;;;;4377492;32;20257;-85
2022/05/09 07:45:20;;;;;;;13.10;3.30;;;;;;;;;;4376756;32;20321;-85
2022/05/09 07:47:46;;;;;;;9.60;3.05;;;;;;;;;;4377593;32;20210;-85
2022/05/09 07:50:13;;;;;;;6.40;3.03;;;;;;;;;;4377259;32;20659;-86
2022/05/09 07:52:42;;;;;;;4.60;2.30;;;;;;;;;;4377033;32;20587;-85
2022/05/09 07:55:13;;;;;;;4.95;3.12;;;;;;;;;;4378510;32;20697;-85
2022/05/09 07:57:39;;;;;;;10.70;3.10;;;;;;;;;;4363560;32;20580;-85
2022/05/09 08:00:07;;;;;;;13.05;3.70;;;;;;;;;;4376793;32;20234;-87
2022/05/09 08:02:33;;;;;;;5.80;3.33;;;;;;;;;;4375614;32;20264;-86
2022/05/09 08:05:00;;;;;;;6.68;2.80;;;;;;;;;;4377365;32;20559;-86
2022/05/09 08:07:26;;;;;;;6.37;2.70;;;;;;;;;;4376223;32;20650;-86
2022/05/09 08:09:52;;;;;;;8.65;2.40;;;;;;;;;;4376605;32;20648;-86
2022/05/09 08:12:18;;;;;;;6.70;2.85;;;;;;;;;;4363254;32;20340;-86
2022/05/09 08:14:45;;;;;;;3.78;2.42;;;;;;;;;;4377870;32;20245;-85
2022/05/09 08:17:11;;;;;;;5.75;2.72;;;;;;;;;;4378645;32;20195;-86
2022/05/09 08:19:38;;;;;;;3.95;2.25;;;;;;;;;;4377851;32;20694;-85
2022/05/09 08:22:07;;;;;;;5.35;3.03;;;;;;;;;;4350982;32;20624;-88
2022/05/09 08:24:34;;;;;;;11.32;3.00;;;;;;;;;;4377148;32;20343;-84
2022/05/09 08:27:00;;;;;;;10.90;2.45;;;;;;;;;;4376755;32;20674;-85
2022/05/09 08:29:26;;;;;;;7.95;1.75;;;;;;;;;;4375881;32;20230;-86
2022/05/09 08:31:52;;;;;;;3.30;1.98;;;;;;;;;;4377152;32;20272;-85
2022/05/09 08:34:19;;;;;;;4.50;2.05;;;;;;;;;;4376423;32;20206;-85
2022/05/09 08:36:53;;;;;;;7.60;1.95;;;;;;;;;;4377441;32;20564;-83
2022/05/09 08:39:23;;;;;;;5.65;2.47;;;;;;;;;;4375409;32;20685;-87
2022/05/09 08:41:59;;;;;;;4.10;2.25;;;;;;;;;;4377533;32;20604;-85
2022/05/09 08:44:37;;;;;;;5.40;2.37;;;;;;;;;;4376046;32;20667;-83
2022/05/09 08:47:22;;;;;;;7.72;2.40;;;;;;;;;;4376991;32;20616;-85
2022/05/09 08:50:01;;;;;;;5.60;3.00;;;;;;;;;;4376950;32;20741;-85
2022/05/09 08:52:44;;;;;;;3.15;2.40;;;;;;;;;;4362380;32;20601;-84
2022/05/09 08:55:12;;;;;;;7.10;2.45;;;;;;;;;;4363075;32;20624;-84
2022/05/09 08:57:47;;;;;;;4.12;2.12;;;;;;;;;;4377851;32;20235;-86
2022/05/09 09:00:16;;;;;;;2.70;1.73;;;;;;;;;;4377222;32;20252;-86
2022/05/09 09:03:31;;;;;;;3.58;2.28;;;;;;;;;;4377461;32;20592;-85
2022/05/09 09:06:04;;;;;;;2.62;1.95;;;;;;;;;;4334627;33;20279;-84
2022/05/09 09:08:57;;;;;;;2.35;1.65;;;;;;;;;;4375453;32;20624;-81
2022/05/09 09:12:01;;;;;;;3.22;1.73;;;;;;;;;;4378280;32;20187;-82
2022/05/09 09:14:44;;;;;;;3.78;1.67;;;;;;;;;;4354927;32;20598;-83
2022/05/09 09:17:46;;;;;;;5.28;1.30;;;;;;;;;;4377872;32;20653;-83
2022/05/09 09:20:44;;;;;;;3.05;2.05;;;;;;;;;;4384359;32;20595;-82
2022/05/09 09:23:29;;;;;;;4.80;1.67;;;;;;;;;;4337010;32;20624;-82
2022/05/09 09:26:29;;;;;;;4.85;2.55;;;;;;;;;;4364539;32;20733;-82
2022/05/09 09:29:18;;;;;;;3.33;2.12;;;;;;;;;;4378373;32;20560;-81
2022/05/09 09:31:48;;;;;;;3.47;2.10;;;;;;;;;;4377607;32;20543;-87
2022/05/09 09:34:45;;;;;;;4.55;2.15;;;;;;;;;;4377409;32;20635;-81
2022/05/09 09:37:29;;;;;;;11.20;2.60;;;;;;;;;;4378202;32;20638;-84
2022/05/09 09:39:58;;;;;;;3.40;2.33;;;;;;;;;;4377475;32;20759;-83
2022/05/09 09:42:26;;;;;;;4.80;2.70;;;;;;;;;;4363733;32;20571;-84
2022/05/09 09:44:54;;;;;;;6.82;2.28;;;;;;;;;;4377425;32;20689;-82
2022/05/09 09:47:20;;;;;;;5.60;1.80;;;;;;;;;;4363943;32;20233;-83
2022/05/09 09:50:29;;;;;;;6.82;1.75;;;;;;;;;;4363996;32;20284;-85
2022/05/09 09:52:59;;;;;;;14.27;2.42;;;;;;;;;;4360134;32;20670;-82
2022/05/09 09:55:33;;;;;;;3.83;2.37;;;;;;;;;;4359968;32;20591;-84
2022/05/09 09:58:24;;;;;;;4.95;1.80;;;;;;;;;;4369167;32;20677;-83
2022/05/09 10:01:12;;;;;;;6.60;2.45;;;;;;;;;;4377614;32;20635;-83
2022/05/09 10:03:44;;;;;;;3.15;1.80;;;;;;;;;;4377247;32;20658;-80
2022/05/09 10:06:16;;;;;;;3.33;1.80;;;;;;;;;;4363547;32;20682;-82
2022/05/09 10:08:42;;;;;;;3.72;1.70;;;;;;;;;;4377027;32;20273;-83
2022/05/09 10:11:11;;;;;;;9.77;1.98;;;;;;;;;;4376559;32;20242;-83
2022/05/09 10:13:48;;;;;;;3.53;1.70;;;;;;;;;;4376754;32;20628;-82
2022/05/09 10:16:33;;;;;;;4.60;2.05;;;;;;;;;;4376304;32;20693;-83
2022/05/09 10:19:01;;;;;;;3.67;1.73;;;;;;;;;;4376657;32;20634;-82
2022/05/09 10:27:25;;;;;;;8.27;2.20;;;;;;;;;;4376570;32;20249;-82
2022/05/09 10:29:55;;;;;;;4.10;1.98;;;;;;;;;;4377245;32;21066;-82
2022/05/09 10:32:28;;;;;;;4.47;2.00;;;;;;;;;;4376263;32;20667;-82
2022/05/09 10:35:05;;;;;;;3.55;1.77;;;;;;;;;;4376778;32;20584;-81
2022/05/09 10:37:53;;;;;;;9.15;1.95;;;;;;;;;;4376472;32;20549;-82
2022/05/09 10:40:36;;;;;;;3.53;1.77;;;;;;;;;;4376904;32;20637;-81
2022/05/09 10:43:06;;;;;;;5.70;1.77;;;;;;;;;;4376382;32;20680;-82
2022/05/09 10:45:44;;;;;;;3.47;2.00;;;;;;;;;;4376776;32;20663;-82
2022/05/09 10:48:36;;;;;;;3.78;1.90;;;;;;;;;;4363144;32;20754;-81
2022/05/09 10:51:12;;;;;;;5.55;1.70;;;;;;;;;;4377130;32;20682;-81
2022/05/09 10:54:10;;;;;;;4.68;1.83;;;;;;;;;;4377565;32;20584;-82
2022/05/09 10:57:08;;;;;;;3.70;1.98;;;;;;;;;;4377469;32;20671;-82
2022/05/09 10:59:41;;;;;;;7.40;2.05;;;;;;;;;;4368950;32;20533;-81
2022/05/09 11:02:22;;;;;;;5.00;2.12;;;;;;;;;;4377209;32;20667;-82
2022/05/09 11:04:47;;;;;;;3.87;1.85;;;;;;;;;;4370239;32;20214;-81
2022/05/09 11:07:32;;;;;;;7.40;1.83;;;;;;;;;;4389055;32;20249;-81
2022/05/09 11:10:37;;;;;;;5.55;1.52;;;;;;;;;;4389439;32;20147;-81
2022/05/09 11:13:26;;;;;;;2.33;1.50;;;;;;;;;;4388728;32;20623;-83
2022/05/09 11:16:04;;;;;;;4.07;1.62;;;;;;;;;;4374040;32;20323;-82
2022/05/09 11:18:38;;;;;;;2.30;1.50;;;;;;;;;;4381063;32;20597;-82
2022/05/09 11:21:27;;;;;;;10.77;2.12;;;;;;;;;;4365270;32;20685;-83
2022/05/09 11:24:09;;;;;;;4.05;1.87;;;;;;;;;;4376904;32;20618;-82
2022/05/09 11:26:38;;;;;;;2.50;1.70;;;;;;;;;;4376098;32;20656;-82
2022/05/09 11:29:35;;;;;;;6.95;2.25;;;;;;;;;;4376988;32;20560;-81
2022/05/09 11:32:25;;;;;;;5.03;2.22;;;;;;;;;;4376069;32;20664;-82
2022/05/09 11:35:21;;;;;;;7.05;1.70;;;;;;;;;;4376904;32;20622;-84
2022/05/09 11:38:24;;;;;;;4.03;1.67;;;;;;;;;;4362827;32;20510;-82
2022/05/09 11:41:28;;;;;;;3.22;2.00;;;;;;;;;;4376428;32;20547;-82
2022/05/09 11:44:07;;;;;;;2.67;1.50;;;;;;;;;;4376303;32;20532;-84
2022/05/09 11:46:42;;;;;;;4.37;1.60;;;;;;;;;;4376366;32;20659;-83
2022/05/09 11:49:26;;;;;;;5.25;1.75;;;;;;;;;;4376644;32;20603;-82
2022/05/09 11:51:58;;;;;;;2.70;1.90;;;;;;;;;;4375873;32;20844;-83
2022/05/09 11:54:43;;;;;;;1.85;1.40;;;;;;;;;;4376032;32;20528;-82
2022/05/09 11:57:29;;;;;;;5.12;1.50;;;;;;;;;;4375583;32;20709;-83
2022/05/09 11:59:58;;;;;;;4.37;1.50;;;;;;;;;;4375757;32;20663;-83
2022/05/09 12:02:51;;;;;;;3.75;1.60;;;;;;;;;;4375921;32;20639;-83
2022/05/09 12:05:30;;;;;;;5.40;1.25;;;;;;;;;;4360160;32;20556;-83
2022/05/09 12:08:05;;;;;;;2.00;1.45;;;;;;;;;;4362995;32;20655;-83
2022/05/09 12:10:35;;;;;;;4.47;2.10;;;;;;;;;;4362440;32;20566;-82
2022/05/09 12:13:04;;;;;;;3.47;1.58;;;;;;;;;;4377032;32;20655;-84
2022/05/09 12:15:30;;;;;;;2.08;1.40;;;;;;;;;;4375641;32;20662;-82
2022/05/09 12:17:58;;;;;;;2.37;1.23;;;;;;;;;;4375198;32;20218;-82
2022/05/09 12:20:27;;;;;;;1.85;1.10;;;;;;;;;;4375661;32;20619;-83
2022/05/09 12:23:02;;;;;;;1.40;1.00;;;;;;;;;;4376660;32;20632;-83
2022/05/09 12:25:36;;;;;;;6.82;1.35;;;;;;;;;;4375759;32;20547;-85
2022/05/09 12:28:21;;;;;;;2.25;1.23;;;;;;;;;;4375799;32;20656;-83
2022/05/09 12:30:59;;;;;;;5.18;1.60;;;;;;;;;;4375761;32;20600;-82
2022/05/09 12:33:36;;;;;;;6.30;2.20;;;;;;;;;;4375617;32;20580;-84
2022/05/09 12:36:30;;;;;;;2.03;1.50;;;;;;;;;;4361758;32;20706;-82
2022/05/09 12:39:01;;;;;;;6.07;1.73;;;;;;;;;;4373563;32;20586;-82
2022/05/09 12:41:45;;;;;;;3.40;1.40;;;;;;;;;;4375779;32;20630;-83
2022/05/09 12:44:19;;;;;;;5.20;1.42;;;;;;;;;;4362003;32;20654;-82
2022/05/09 12:46:51;;;;;;;4.15;1.73;;;;;;;;;;4375533;32;20742;-83
2022/05/09 12:49:20;;;;;;;4.05;1.50;;;;;;;;;;4374845;32;20511;-80
2022/05/09 12:51:49;;;;;;;3.45;1.75;;;;;;;;;;4374721;32;20555;-83
2022/05/09 12:54:22;;;;;;;2.55;1.40;;;;;;;;;;4374870;32;20603;-81
2022/05/09 12:56:56;;;;;;;2.50;1.42;;;;;;;;;;4361967;32;20537;-83
2022/05/09 12:59:22;;;;;;;2.72;1.65;;;;;;;;;;4374674;32;20618;-83
2022/05/09 13:02:00;;;;;;;4.82;1.40;;;;;;;;;;4375399;32;20635;-82
2022/05/09 13:04:32;;;;;;;1.48;1.17;;;;;;;;;;4362326;32;20571;-80
2022/05/09 13:07:04;;;;;;;5.47;1.30;;;;;;;;;;4375451;32;20607;-81
2022/05/09 13:09:34;;;;;;;3.25;1.23;;;;;;;;;;4375750;32;20588;-81
2022/05/09 13:12:08;;;;;;;2.47;1.10;;;;;;;;;;4375274;32;20626;-82
2022/05/09 13:14:41;;;;;;;6.00;2.00;;;;;;;;;;4361595;32;20541;-84
2022/05/09 13:17:17;;;;;;;4.60;1.33;;;;;;;;;;4375166;32;20682;-84
2022/05/09 13:19:49;;;;;;;4.55;1.92;;;;;;;;;;4375754;32;20201;-84
2022/05/09 13:22:46;;;;;;;3.60;1.52;;;;;;;;;;4376591;32;20589;-83
2022/05/09 13:25:31;;;;;;;1.62;1.20;;;;;;;;;;4363840;32;20725;-83
2022/05/09 13:28:03;;;;;;;2.97;1.48;;;;;;;;;;4375908;32;20710;-81
2022/05/09 13:30:38;;;;;;;6.70;1.80;;;;;;;;;;4376100;32;20661;-82
2022/05/09 13:33:05;;;;;;;3.97;1.65;;;;;;;;;;4375773;32;20651;-83
2022/05/09 13:35:33;;;;;;;2.62;1.62;;;;;;;;;;4376239;32;20548;-83
2022/05/09 13:38:15;;;;;;;2.47;1.75;;;;;;;;;;4375938;32;20662;-82
2022/05/09 13:40:41;;;;;;;2.70;1.33;;;;;;;;;;4376877;32;20642;-83
2022/05/09 13:43:07;;;;;;;5.50;1.20;;;;;;;;;;4375067;32;20226;-82
2022/05/09 13:45:33;;;;;;;2.37;1.42;;;;;;;;;;4375975;32;20635;-83
2022/05/09 13:48:05;;;;;;;3.67;1.73;;;;;;;;;;4374440;32;20686;-82
2022/05/09 13:50:38;;;;;;;3.53;1.37;;;;;;;;;;4376263;32;20600;-83
2022/05/09 13:53:11;;;;;;;7.47;1.73;;;;;;;;;;4378113;32;20571;-82
2022/05/09 13:55:42;;;;;;;2.00;1.40;;;;;;;;;;4378462;32;20615;-82
2022/05/09 13:58:11;;;;;;;2.87;1.30;;;;;;;;;;4378367;32;20717;-82
2022/05/09 14:00:49;;;;;;;3.35;1.20;;;;;;;;;;4378690;32;20226;-83
2022/05/09 14:03:36;;;;;;;5.78;1.37;;;;;;;;;;4378400;32;20640;-83
2022/05/09 14:06:08;;;;;;;3.47;1.30;;;;;;;;;;4378069;32;20759;-83
2022/05/09 14:08:35;;;;;;;5.78;1.50;;;;;;;;;;4364925;32;20282;-82
2022/05/09 14:11:07;;;;;;;3.55;1.37;;;;;;;;;;4378364;32;20619;-83
2022/05/09 14:13:39;;;;;;;6.65;1.60;;;;;;;;;;4378556;32;20577;-81
2022/05/09 14:16:35;;;;;;;6.65;1.42;;;;;;;;;;4378124;32;20577;-78
2022/05/09 14:19:04;;;;;;;4.97;1.52;;;;;;;;;;4378409;32;20622;-78
2022/05/09 14:21:58;;;;;;;3.67;1.50;;;;;;;;;;4377953;32;20651;-79
2022/05/09 14:24:26;;;;;;;1.95;1.27;;;;;;;;;;4377850;32;20525;-79
2022/05/09 14:29:56;;;;;;;4.22;1.42;;;;;;;;;;4377799;32;20304;-78
2022/05/09 14:32:51;;;;;;;2.03;0.90;;;;;;;;;;4361570;32;20750;-78
2022/05/09 14:35:44;;;;;;;3.08;1.23;;;;;;;;;;4357779;32;20560;-79
2022/05/09 14:38:31;;;;;;;5.85;1.10;;;;;;;;;;4377571;32;20638;-79
2022/05/09 14:41:37;;;;;;;1.75;1.25;;;;;;;;;;4377187;32;20608;-78
2022/05/09 14:44:25;;;;;;;1.00;0.80;;;;;;;;;;4377315;32;20603;-79
2022/05/09 14:46:51;;;;;;;2.95;0.90;;;;;;;;;;4363709;32;20710;-78
2022/05/09 14:49:18;;;;;;;3.37;1.35;;;;;;;;;;4377231;32;20213;-79
2022/05/09 14:52:00;;;;;;;2.97;1.40;;;;;;;;;;4377191;32;20646;-79
2022/05/09 14:54:31;;;;;;;3.08;1.50;;;;;;;;;;4377506;32;20186;-79
2022/05/09 14:59:49;;;;;;;4.43;1.12;;;;;;;;;;4377634;32;20650;-82
2022/05/09 15:02:25;;;;;;;5.60;1.55;;;;;;;;;;4363424;32;20663;-81
2022/05/09 15:04:53;;;;;;;7.15;1.42;;;;;;;;;;4377664;32;20646;-85
2022/05/09 15:07:20;;;;;;;8.23;1.35;;;;;;;;;;4377285;32;20587;-83
2022/05/09 15:09:48;;;;;;;2.85;1.33;;;;;;;;;;4377399;32;20634;-82
2022/05/09 15:12:20;;;;;;;2.78;1.52;;;;;;;;;;4363617;32;20559;-84
2022/05/09 15:14:46;;;;;;;2.08;1.23;;;;;;;;;;4377569;32;20685;-81
2022/05/09 15:17:12;;;;;;;1.85;1.37;;;;;;;;;;4377057;32;20319;-83
2022/05/09 15:19:38;;;;;;;4.43;2.12;;;;;;;;;;4377393;32;20611;-88
2022/05/09 15:22:04;;;;;;;1.55;1.02;;;;;;;;;;4363706;32;20309;-83
2022/05/09 15:24:30;;;;;;;6.78;1.35;;;;;;;;;;4377514;32;20657;-81
2022/05/09 15:26:55;;;;;;;2.00;1.20;;;;;;;;;;4376448;32;20285;-80